createdAt,value
2023-05-25T00:01:50.949Z,73.40
2023-05-25T00:04:38.612Z,73.10
2023-05-25T00:07:19.008Z,73.30
2023-05-25T00:10:06.362Z,73.80
2023-05-25T00:12:45.934Z,74.10
2023-05-25T00:15:40.009Z,74.40
2023-05-25T00:18:20.188Z,74.50
2023-05-25T00:21:12.085Z,74.70
2023-05-25T00:23:59.069Z,74.70
2023-05-25T00:26:38.978Z,74.90
2023-05-25T00:29:27.144Z,74.30
2023-05-25T00:32:07.975Z,74.70
2023-05-25T00:34:48.439Z,74.50
2023-05-25T00:37:34.995Z,74.20
2023-05-25T00:40:22.096Z,74.10
2023-05-25T00:43:02.997Z,74.00
2023-05-25T00:45:56.996Z,73.30
2023-05-25T00:48:46.007Z,73.70
2023-05-25T00:51:26.134Z,73.80
2023-05-25T00:54:13.063Z,74.80
2023-05-25T00:56:54.191Z,74.80
2023-05-25T00:59:48.017Z,74.90
2023-05-25T01:02:29.357Z,74.90
2023-05-25T01:05:17.035Z,74.70
2023-05-25T01:08:00.156Z,75.00
2023-05-25T01:10:48.021Z,75.20
2023-05-25T01:13:28.259Z,75.30
2023-05-25T01:16:16.133Z,75.60
2023-05-25T01:18:56.199Z,75.60
2023-05-25T01:21:49.082Z,75.60
2023-05-25T01:24:35.227Z,75.90
2023-05-25T01:27:37.102Z,75.90
2023-05-25T01:30:24.202Z,76.20
2023-05-25T01:33:04.059Z,76.20
2023-05-25T01:35:58.045Z,76.40
2023-05-25T01:38:45.220Z,76.50
2023-05-25T01:41:25.134Z,76.70
2023-05-25T01:44:19.066Z,76.80
2023-05-25T01:47:17.093Z,77.00
2023-05-25T01:50:04.802Z,77.20
2023-05-25T01:52:48.087Z,77.20
2023-05-25T01:55:36.549Z,77.40
2023-05-25T01:58:18.066Z,77.40
2023-05-25T02:01:06.296Z,77.70
2023-05-25T02:03:49.251Z,77.90
2023-05-25T02:06:36.290Z,78.30
2023-05-25T02:09:16.142Z,78.50
2023-05-25T02:12:04.274Z,78.60
2023-05-25T02:14:44.180Z,78.90
2023-05-25T02:17:31.390Z,79.10
2023-05-25T02:20:15.117Z,79.30
2023-05-25T02:23:02.275Z,79.50
2023-05-25T02:25:44.375Z,80.00
2023-05-25T02:28:31.428Z,80.10
2023-05-25T02:34:00.274Z,80.10
2023-05-25T02:36:55.178Z,81.30
2023-05-25T02:39:42.125Z,81.30
2023-05-25T02:42:29.217Z,82.40
2023-05-25T02:45:17.239Z,82.10
2023-05-25T02:47:57.374Z,82.10
2023-05-25T02:50:46.293Z,82.30
2023-05-25T02:53:26.377Z,82.50
2023-05-25T02:56:17.223Z,82.80
2023-05-25T02:58:57.245Z,82.80
2023-05-25T03:01:47.302Z,82.90
2023-05-25T03:04:27.354Z,83.10
2023-05-25T03:07:14.196Z,83.20
2023-05-25T03:10:27.355Z,83.30
2023-05-25T03:13:21.233Z,83.20
2023-05-25T03:16:08.353Z,83.50
2023-05-25T03:18:48.166Z,83.50
2023-05-25T03:21:43.185Z,83.50
2023-05-25T03:24:26.850Z,83.60
2023-05-25T03:27:16.161Z,83.60
2023-05-25T03:30:03.371Z,83.60
2023-05-25T03:32:43.277Z,83.60
2023-05-25T03:35:30.392Z,83.60
2023-05-25T03:38:10.220Z,83.50
2023-05-25T03:40:57.388Z,83.30
2023-05-25T03:43:38.224Z,83.40
2023-05-25T03:49:45.251Z,83.40
2023-05-25T03:52:26.423Z,83.40
2023-05-25T03:55:13.290Z,83.20
2023-05-25T03:57:53.381Z,83.20
2023-05-25T04:00:43.230Z,82.40
2023-05-25T04:03:27.965Z,82.70
2023-05-25T04:06:15.276Z,82.60
2023-05-25T04:08:58.099Z,82.10
2023-05-25T04:11:47.233Z,82.20
2023-05-25T04:14:34.313Z,82.20
2023-05-25T04:17:25.021Z,81.90
2023-05-25T04:20:05.437Z,81.40
2023-05-25T04:22:53.618Z,79.70
2023-05-25T04:25:34.277Z,79.50
2023-05-25T04:28:21.417Z,78.90
2023-05-25T04:31:05.336Z,78.50
2023-05-25T04:34:09.805Z,78.00
2023-05-25T04:37:04.274Z,77.30
2023-05-25T04:39:45.515Z,77.90
2023-05-25T04:42:32.293Z,77.70
2023-05-25T04:45:28.263Z,77.50
2023-05-25T04:48:16.305Z,76.90
2023-05-25T04:50:56.441Z,76.90
2023-05-25T04:53:44.285Z,76.90
2023-05-25T04:56:27.002Z,76.50
2023-05-25T04:59:14.355Z,75.70
2023-05-25T05:02:01.301Z,75.50
2023-05-25T05:04:48.404Z,75.20
2023-05-25T05:07:30.292Z,74.60
2023-05-25T05:10:42.604Z,73.60
2023-05-25T05:13:30.837Z,73.60
2023-05-25T05:16:11.455Z,73.00
2023-05-25T05:18:58.409Z,72.60
2023-05-25T05:21:38.710Z,72.80
2023-05-25T05:24:26.330Z,72.40
2023-05-25T05:27:06.429Z,72.80
2023-05-25T05:30:04.400Z,72.90
2023-05-25T05:32:51.525Z,72.80
2023-05-25T05:35:36.640Z,73.10
2023-05-25T05:38:27.449Z,73.40
2023-05-25T05:41:14.597Z,71.50
2023-05-25T05:43:56.408Z,71.10
2023-05-25T05:46:43.756Z,68.50
2023-05-25T05:49:23.334Z,68.20
2023-05-25T05:52:11.573Z,66.70
2023-05-25T05:54:52.399Z,66.40
2023-05-25T05:57:32.615Z,66.40
2023-05-25T06:00:20.384Z,67.00
2023-05-25T06:03:01.223Z,66.20
2023-05-25T06:05:48.500Z,66.00
2023-05-25T06:08:28.677Z,65.90
2023-05-25T06:11:16.471Z,65.70
2023-05-25T06:14:03.476Z,64.10
2023-05-25T06:16:44.405Z,65.00
2023-05-25T06:19:32.576Z,63.50
2023-05-25T06:22:13.375Z,63.90
2023-05-25T06:25:01.812Z,62.10
2023-05-25T06:27:41.423Z,62.90
2023-05-25T06:30:35.523Z,62.90
2023-05-25T06:33:15.656Z,60.90
2023-05-25T06:36:06.454Z,59.90
2023-05-25T06:38:53.537Z,59.90
2023-05-25T06:41:34.383Z,59.40
2023-05-25T06:44:21.551Z,59.20
2023-05-25T06:47:08.432Z,59.30
2023-05-25T06:49:48.514Z,59.00
2023-05-25T06:52:35.409Z,58.50
2023-05-25T07:26:44.968Z,53.90
2023-05-25T07:29:24.706Z,54.70
2023-05-25T07:32:11.641Z,53.50
2023-05-25T07:34:51.458Z,53.90
2023-05-25T07:37:38.613Z,52.90
2023-05-25T07:40:18.467Z,52.60
2023-05-25T07:42:59.077Z,51.90
2023-05-25T07:45:45.732Z,52.40
2023-05-25T07:48:32.754Z,52.10
2023-05-25T07:51:12.559Z,53.30
2023-05-25T07:54:00.226Z,51.50
2023-05-25T07:59:28.676Z,49.20
2023-05-25T08:02:08.571Z,49.50
2023-05-25T08:04:56.418Z,50.00
2023-05-25T08:07:36.554Z,48.80
2023-05-25T08:10:23.802Z,49.00
2023-05-25T08:13:03.521Z,48.50
2023-05-25T08:15:50.565Z,49.00
2023-05-25T08:18:31.727Z,48.90
2023-05-25T08:21:18.582Z,48.30
2023-05-25T08:23:58.645Z,47.80
2023-05-25T08:29:32.784Z,49.00
2023-05-25T08:32:19.559Z,49.20
2023-05-25T08:34:59.749Z,48.50
2023-05-25T08:37:46.798Z,46.80
2023-05-25T08:40:29.013Z,47.30
2023-05-25T08:43:15.612Z,47.40
2023-05-25T08:46:05.775Z,49.30
2023-05-25T08:48:45.665Z,48.20
2023-05-25T08:51:32.688Z,52.00
2023-05-25T08:54:14.756Z,51.30
2023-05-25T08:57:21.686Z,49.20
2023-05-25T09:00:07.705Z,48.70
2023-05-25T09:03:01.623Z,48.00
2023-05-25T09:05:48.734Z,48.10
2023-05-25T09:08:29.612Z,48.30
2023-05-25T09:11:10.199Z,49.50
2023-05-25T09:13:57.583Z,49.30
2023-05-25T09:16:46.955Z,50.30
2023-05-25T09:19:26.611Z,49.30
2023-05-25T09:22:16.772Z,49.50
2023-05-25T09:24:56.670Z,49.00
2023-05-25T09:27:43.786Z,48.90
2023-05-25T09:30:23.627Z,50.70
2023-05-25T09:33:19.857Z,51.70
2023-05-25T09:35:59.827Z,50.00
2023-05-25T09:38:47.242Z,47.00
2023-05-25T09:41:28.904Z,48.10
2023-05-25T09:44:15.784Z,48.10
2023-05-25T09:47:02.657Z,47.00
2023-05-25T09:49:44.723Z,44.70
2023-05-25T09:52:31.699Z,45.60
2023-05-25T09:55:22.686Z,48.20
2023-05-25T09:58:09.787Z,47.50
2023-05-25T10:00:52.688Z,46.90
2023-05-25T10:03:43.718Z,46.80
2023-05-25T10:06:25.665Z,47.90
2023-05-25T10:09:14.866Z,49.00
2023-05-25T10:11:57.737Z,48.10
2023-05-25T10:14:44.914Z,48.50
2023-05-25T10:17:36.884Z,47.00
2023-05-25T10:20:26.081Z,46.70
2023-05-25T10:23:11.774Z,45.00
2023-05-25T10:26:01.901Z,43.30
2023-05-25T10:28:50.845Z,42.80
2023-05-25T10:31:32.190Z,44.20
2023-05-25T10:34:19.811Z,42.90
2023-05-25T10:37:01.046Z,41.60
2023-05-25T10:39:49.794Z,44.10
2023-05-25T10:42:36.756Z,43.80
2023-05-25T10:45:30.819Z,42.10
2023-05-25T10:48:17.763Z,43.30
2023-05-25T10:50:57.858Z,41.20
2023-05-25T10:53:44.813Z,42.90
2023-05-25T10:56:24.823Z,44.50
2023-05-25T10:59:11.765Z,44.50
2023-05-25T11:01:57.895Z,45.60
2023-05-25T11:04:44.878Z,45.20
2023-05-25T11:07:24.877Z,46.40
2023-05-25T11:10:11.813Z,47.20
2023-05-25T11:12:52.957Z,48.50
2023-05-25T11:15:39.774Z,48.90
2023-05-25T11:18:22.893Z,49.10
2023-05-25T11:21:29.909Z,50.00
2023-05-25T11:24:10.981Z,51.20
2023-05-25T11:27:02.968Z,50.40
2023-05-25T11:29:42.999Z,51.00
2023-05-25T11:32:29.874Z,50.10
2023-05-25T11:35:13.936Z,50.90
2023-05-25T11:38:01.800Z,50.60
2023-05-25T11:40:49.131Z,51.20
2023-05-25T11:43:37.788Z,51.00
2023-05-25T11:46:18.869Z,51.40
2023-05-25T11:49:05.939Z,50.80
2023-05-25T11:51:45.924Z,50.00
2023-05-25T11:54:29.204Z,49.90
2023-05-25T11:57:15.885Z,48.60
2023-05-25T12:00:07.331Z,49.00
2023-05-25T12:02:48.003Z,48.50
2023-05-25T12:05:43.258Z,47.90
2023-05-25T12:08:27.543Z,47.50
2023-05-25T12:11:14.941Z,48.10
2023-05-25T12:13:54.829Z,48.10
2023-05-25T12:16:42.188Z,48.50
2023-05-25T12:19:22.861Z,48.50
2023-05-25T12:22:03.432Z,48.20
2023-05-25T12:24:49.921Z,48.00
2023-05-25T12:27:37.420Z,48.90
2023-05-25T12:30:17.896Z,48.30
2023-05-25T12:33:08.074Z,48.10
2023-05-25T12:35:54.888Z,47.80
2023-05-25T12:38:42.068Z,47.60
2023-05-25T12:41:21.895Z,48.20
2023-05-25T12:44:09.087Z,48.20
2023-05-25T12:47:07.169Z,48.70
2023-05-25T12:49:54.948Z,50.20
2023-05-25T12:52:45.073Z,49.80
2023-05-25T12:55:32.955Z,49.90
2023-05-25T12:58:13.981Z,51.20
2023-05-25T13:01:00.985Z,50.60
2023-05-25T13:03:41.502Z,50.90
2023-05-25T13:06:27.941Z,50.80
2023-05-25T13:09:10.645Z,51.10
2023-05-25T13:12:24.970Z,51.50
2023-05-25T13:15:19.491Z,52.50
2023-05-25T13:18:02.326Z,52.70
2023-05-25T13:24:05.946Z,54.20
2023-05-25T13:26:53.089Z,55.80
2023-05-25T13:29:33.079Z,56.60
2023-05-25T13:32:24.835Z,56.90
2023-05-25T13:35:42.788Z,56.30
2023-05-25T13:38:31.781Z,56.50
2023-05-25T13:41:17.978Z,56.80
2023-05-25T13:44:08.970Z,57.00
2023-05-25T13:47:00.430Z,57.30
2023-05-25T13:49:43.139Z,57.30
2023-05-25T13:52:25.376Z,57.20
2023-05-25T13:55:18.476Z,56.60
2023-05-25T13:58:05.486Z,56.70
2023-05-25T14:00:48.242Z,56.50
2023-05-25T14:03:38.983Z,56.60
2023-05-25T14:06:29.184Z,56.50
2023-05-25T14:09:17.221Z,56.90
2023-05-25T14:12:03.035Z,58.40
2023-05-25T14:14:51.847Z,59.40
2023-05-25T14:17:33.891Z,61.20
2023-05-25T14:20:29.656Z,63.10
2023-05-25T14:23:16.702Z,63.80
2023-05-25T14:25:58.407Z,64.20
2023-05-25T14:28:45.463Z,65.20
2023-05-25T14:31:25.343Z,65.60
2023-05-25T14:34:12.498Z,66.70
2023-05-25T14:36:59.210Z,67.50
2023-05-25T14:39:43.395Z,72.40
2023-05-25T14:42:30.246Z,75.20
2023-05-25T14:45:11.606Z,76.90
2023-05-25T14:48:11.765Z,78.10
2023-05-25T14:50:56.235Z,78.30
2023-05-25T14:53:43.056Z,78.60
2023-05-25T14:56:28.195Z,78.70
2023-05-25T14:59:15.037Z,76.70
2023-05-25T15:01:55.268Z,75.70
2023-05-25T15:04:42.451Z,76.50
2023-05-25T15:07:22.221Z,76.90
2023-05-25T15:10:09.104Z,76.80
2023-05-25T15:12:49.217Z,76.70
2023-05-25T15:15:36.115Z,76.80
2023-05-25T15:18:16.529Z,76.80
2023-05-25T15:21:05.053Z,76.00
2023-05-25T15:23:45.216Z,76.80
2023-05-25T15:26:33.171Z,77.90
2023-05-25T15:29:13.202Z,78.40
2023-05-25T15:32:02.195Z,78.80
2023-05-25T15:34:42.233Z,78.80
2023-05-25T15:37:29.448Z,79.10
2023-05-25T15:40:16.117Z,79.50
2023-05-25T15:43:03.202Z,80.10
2023-05-25T15:45:43.366Z,80.70
2023-05-25T15:48:30.236Z,80.90
2023-05-25T15:51:10.139Z,81.20
2023-05-25T15:53:57.296Z,81.50
2023-05-25T15:56:39.166Z,80.40
2023-05-25T15:59:26.254Z,78.30
2023-05-25T16:02:06.186Z,78.60
2023-05-25T16:04:46.441Z,78.10
2023-05-25T16:07:33.130Z,78.90
2023-05-25T16:10:20.310Z,78.90
2023-05-25T16:13:00.141Z,78.50
2023-05-25T16:15:47.481Z,78.70
2023-05-25T16:18:27.223Z,79.50
2023-05-25T16:21:14.308Z,80.70
2023-05-25T16:23:54.217Z,82.00
2023-05-25T16:26:41.301Z,82.10
2023-05-25T16:29:21.160Z,82.70
2023-05-25T16:32:08.405Z,82.70
2023-05-25T16:34:48.249Z,82.70
2023-05-25T16:37:42.170Z,82.60
2023-05-25T16:40:29.346Z,83.60
2023-05-25T16:43:09.283Z,84.30
2023-05-25T16:46:03.204Z,85.00
2023-05-25T16:48:57.376Z,85.20
2023-05-25T16:51:44.710Z,86.00
2023-05-25T16:54:24.207Z,86.40
2023-05-25T16:57:12.187Z,86.40
2023-05-25T16:59:53.570Z,86.30
2023-05-25T17:02:40.548Z,86.90
2023-05-25T17:05:20.209Z,86.80
2023-05-25T17:08:07.439Z,87.00
2023-05-25T17:10:49.578Z,86.60
2023-05-25T17:13:37.062Z,86.50
2023-05-25T17:16:17.441Z,86.40
2023-05-25T17:19:04.416Z,86.00
2023-05-25T17:24:32.387Z,86.60
2023-05-25T17:27:12.241Z,88.20
2023-05-25T17:29:59.473Z,89.00
2023-05-25T17:32:39.310Z,90.00
2023-05-25T17:35:33.387Z,90.00
2023-05-25T17:38:13.560Z,89.60
2023-05-25T17:41:00.252Z,89.60
2023-05-25T17:43:40.674Z,89.50
2023-05-25T17:46:27.465Z,89.80
2023-05-25T17:49:14.537Z,90.30
2023-05-25T17:51:54.285Z,90.60
2023-05-25T17:54:41.670Z,90.60
2023-05-25T17:57:21.370Z,90.90
2023-05-25T18:00:08.704Z,90.80
2023-05-25T18:02:48.379Z,90.60
2023-05-25T18:05:35.437Z,90.60
2023-05-25T18:08:15.346Z,90.40
2023-05-25T18:11:02.479Z,90.30
2023-05-25T18:13:42.313Z,90.40
2023-05-25T18:16:29.549Z,90.40
2023-05-25T18:19:09.298Z,90.10
2023-05-25T18:21:56.529Z,90.10
2023-05-25T18:24:36.375Z,90.30
2023-05-25T18:27:23.485Z,90.40
2023-05-25T18:30:03.429Z,90.30
2023-05-25T18:32:50.504Z,90.10
2023-05-25T18:35:30.301Z,90.10
2023-05-25T18:38:17.458Z,90.00
2023-05-25T18:40:57.349Z,89.80
2023-05-25T18:43:37.593Z,90.00
2023-05-25T18:46:24.419Z,90.20
2023-05-25T18:49:11.365Z,90.10
2023-05-25T18:51:51.538Z,90.20
2023-05-25T18:54:38.398Z,90.20
2023-05-25T18:57:18.451Z,90.30
2023-05-25T19:00:05.376Z,90.50
2023-05-25T19:02:45.600Z,90.80
2023-05-25T19:05:32.432Z,91.00
2023-05-25T19:08:12.459Z,91.20
2023-05-25T19:10:59.389Z,91.40
2023-05-25T19:13:39.603Z,91.50
2023-05-25T19:16:26.443Z,91.60
2023-05-25T19:19:06.640Z,92.00
2023-05-25T19:21:53.376Z,92.20
2023-05-25T19:24:33.517Z,92.30
2023-05-25T19:27:20.414Z,92.30
2023-05-25T19:30:00.735Z,92.40
2023-05-25T19:32:47.400Z,92.60
2023-05-25T19:35:27.536Z,92.70
2023-05-25T19:38:14.401Z,92.80
2023-05-25T19:40:54.616Z,92.70
2023-05-25T19:43:41.374Z,92.70
2023-05-25T19:46:35.511Z,92.80
2023-05-25T19:49:22.413Z,93.00
2023-05-25T19:52:02.580Z,93.20
2023-05-25T19:54:50.789Z,93.30
2023-05-25T19:57:31.568Z,93.20
2023-05-25T20:00:26.082Z,93.00
2023-05-25T20:03:07.596Z,93.20
2023-05-25T20:05:55.505Z,93.20
2023-05-25T20:08:37.083Z,93.20
2023-05-25T20:11:23.540Z,93.30
2023-05-25T20:14:03.500Z,93.40
2023-05-25T20:19:24.826Z,93.00
2023-05-25T20:22:12.460Z,93.50
2023-05-25T20:25:00.942Z,93.80
2023-05-25T20:27:40.684Z,93.70
2023-05-25T20:30:27.648Z,93.90
2023-05-25T20:33:07.631Z,94.10
2023-05-25T20:35:47.947Z,94.30
2023-05-25T20:38:34.510Z,94.50
2023-05-25T20:41:21.543Z,94.30
2023-05-25T20:44:08.512Z,94.00
2023-05-25T20:46:55.504Z,94.30
2023-05-25T20:49:35.802Z,94.30
2023-05-25T20:52:22.479Z,94.50
2023-05-25T20:55:02.784Z,94.70
2023-05-25T20:57:56.598Z,94.90
2023-05-25T21:00:36.730Z,95.20
2023-05-25T21:03:23.634Z,95.40
2023-05-25T21:06:10.771Z,95.40
2023-05-25T21:08:57.524Z,95.40
2023-05-25T21:11:37.762Z,95.50
2023-05-25T21:14:24.611Z,95.50
2023-05-25T21:17:04.924Z,95.70
2023-05-25T21:19:51.558Z,95.90
2023-05-25T21:22:31.722Z,96.10
2023-05-25T21:25:18.579Z,96.00
2023-05-25T21:28:01.594Z,95.40
2023-05-25T21:30:48.542Z,95.00
2023-05-25T21:33:31.024Z,94.60
2023-05-25T21:36:17.542Z,94.10
2023-05-25T21:38:58.179Z,93.20
2023-05-25T21:41:44.545Z,92.70
2023-05-25T21:44:32.709Z,92.40
2023-05-25T21:47:26.614Z,92.00
2023-05-25T21:50:16.658Z,91.80
2023-05-25T21:53:01.539Z,91.30
2023-05-25T21:55:48.543Z,91.40
2023-05-25T21:58:28.817Z,91.10
2023-05-25T22:01:15.617Z,90.60
2023-05-25T22:03:55.834Z,90.40
2023-05-25T22:06:43.622Z,90.20
2023-05-25T22:09:23.711Z,90.30
2023-05-25T22:12:10.608Z,89.80
2023-05-25T22:14:53.828Z,89.60
2023-05-25T22:17:44.628Z,88.70
2023-05-25T22:20:24.635Z,89.50
2023-05-25T22:23:11.617Z,88.10
2023-05-25T22:25:51.650Z,87.70
2023-05-25T22:28:39.601Z,86.60
2023-05-25T22:31:22.854Z,85.40
2023-05-25T22:34:11.395Z,84.80
2023-05-25T22:36:51.835Z,84.50
2023-05-25T22:39:38.576Z,83.80
2023-05-25T22:42:28.444Z,83.50
2023-05-25T22:45:15.826Z,83.10
2023-05-25T22:48:09.708Z,82.60
2023-05-25T22:50:49.871Z,81.90
2023-05-25T22:53:36.627Z,81.10
2023-05-25T22:56:23.727Z,80.60
2023-05-25T22:59:03.723Z,80.30
2023-05-25T23:01:43.993Z,79.80
2023-05-25T23:04:30.584Z,79.30
2023-05-25T23:07:17.814Z,78.70
2023-05-25T23:09:57.667Z,78.50
2023-05-25T23:12:44.886Z,77.60
2023-05-25T23:15:25.639Z,77.20
2023-05-25T23:18:06.462Z,77.00
2023-05-25T23:20:53.725Z,77.30
2023-05-25T23:23:40.898Z,77.50
2023-05-25T23:26:20.687Z,77.80
2023-05-25T23:29:01.033Z,77.80
2023-05-25T23:31:47.698Z,77.70
2023-05-25T23:34:34.847Z,78.00
2023-05-25T23:37:14.662Z,77.40
2023-05-25T23:39:54.957Z,77.40
2023-05-25T23:42:41.644Z,77.20
2023-05-25T23:45:28.695Z,77.80
2023-05-25T23:48:22.766Z,78.00
2023-05-25T23:51:09.822Z,78.70
2023-05-25T23:53:49.823Z,79.10
2023-05-25T23:56:38.733Z,79.50
2023-05-25T23:59:18.830Z,80.00
